KSDF/SDF METAR and TAF weather

Enter ICAO airport designator
Station Type Date Time Source
KSDF METAR 2019/04/21 21:56 UTC NOAA

KSDF 212156Z 00000KT 10SM FEW250 23/01 A3009 RMK AO2 SLP188 T02280006


Station Type Date Time Source
KSDF Decoded METAR 2019/04/21 21:56 UTC NOAA

STANDIFORD FIELD, KY, United States (KSDF) 38-11N 085-44W 146M
Apr 21, 2019 - 05:56 PM EDT / 2019.04.21 2156 UTC
Wind: Calm:0
Visibility: 10 mile(s):0
Sky conditions: mostly clear
Temperature: 73.0 F (22.8 C)
Dew Point: 33.1 F (0.6 C)
Relative Humidity: 22%
Pressure (altimeter): 30.09 in. Hg (1018 hPa)
ob: KSDF 212156Z 00000KT 10SM FEW250 23/01 A3009 RMK AO2 SLP188 T02280006
cycle: 22

Station Type Date Time Source
KSDF TAF 2019/04/21 18:22 UTC NOAA

TAF KSDF 211720Z 2118/2224 VRB05KT P6SM SKC
FM221600 17007KT P6SM FEW030 SCT250

Example: see airport list